sensor_id;sensor_type;location;lat;lon;timestamp;P1;P4;P2;P0;N10;N4;N25;N1;N05;TS
85957;SPS30;76994;48.226;16.348;2024-03-06T00:02:41;41.0;;42.8;37.6;;;;;;
85957;SPS30;76994;48.226;16.348;2024-03-06T00:12:41;42.4;;44.5;38.8;;;;;;
85957;SPS30;76994;48.226;16.348;2024-03-06T00:22:41;44.4;;46.7;40.6;;;;;;
85957;SPS30;76994;48.226;16.348;2024-03-06T00:32:41;43.3;;45.4;39.5;;;;;;
85957;SPS30;76994;48.226;16.348;2024-03-06T00:42:41;44.9;;47.2;41.0;;;;;;
85957;SPS30;76994;48.226;16.348;2024-03-06T00:52:41;44.4;;47.0;40.3;;;;;;
85957;SPS30;76994;48.226;16.348;2024-03-06T01:02:42;41.6;;43.9;37.9;;;;;;
85957;SPS30;76994;48.226;16.348;2024-03-06T01:12:41;44.2;;47.1;39.9;;;;;;
85957;SPS30;76994;48.226;16.348;2024-03-06T01:22:41;45.4;;47.1;42.0;;;;;;
85957;SPS30;76994;48.226;16.348;2024-03-06T01:32:41;43.0;;44.9;39.5;;;;;;
85957;SPS30;76994;48.226;16.348;2024-03-06T01:42:41;43.1;;45.1;39.5;;;;;;
85957;SPS30;76994;48.226;16.348;2024-03-06T01:52:41;43.9;;45.8;40.4;;;;;;
85957;SPS30;76994;48.226;16.348;2024-03-06T02:02:42;46.4;;48.4;42.7;;;;;;
85957;SPS30;76994;48.226;16.348;2024-03-06T02:12:41;44.9;;47.1;41.0;;;;;;
85957;SPS30;76994;48.226;16.348;2024-03-06T02:22:42;47.1;;50.1;42.5;;;;;;
85957;SPS30;76994;48.226;16.348;2024-03-06T02:32:41;47.1;;49.5;43.1;;;;;;
85957;SPS30;76994;48.226;16.348;2024-03-06T02:42:41;43.4;;45.5;39.8;;;;;;
85957;SPS30;76994;48.226;16.348;2024-03-06T02:52:41;45.4;;48.8;40.5;;;;;;
85957;SPS30;76994;48.226;16.348;2024-03-06T03:02:41;45.7;;49.6;40.4;;;;;;
85957;SPS30;76994;48.226;16.348;2024-03-06T03:12:41;45.2;;47.6;41.2;;;;;;
85957;SPS30;76994;48.226;16.348;2024-03-06T03:22:41;46.7;;49.3;42.5;;;;;;
85957;SPS30;76994;48.226;16.348;2024-03-06T03:32:41;49.1;;52.1;44.4;;;;;;
85957;SPS30;76994;48.226;16.348;2024-03-06T03:42:41;51.6;;54.6;46.9;;;;;;
85957;SPS30;76994;48.226;16.348;2024-03-06T03:52:41;50.6;;53.5;46.0;;;;;;
85957;SPS30;76994;48.226;16.348;2024-03-06T04:02:41;48.4;;51.5;43.7;;;;;;
85957;SPS30;76994;48.226;16.348;2024-03-06T04:12:41;50.3;;54.0;45.0;;;;;;
85957;SPS30;76994;48.226;16.348;2024-03-06T04:22:41;46.7;;49.1;42.5;;;;;;
85957;SPS30;76994;48.226;16.348;2024-03-06T04:32:41;46.4;;49.3;42.0;;;;;;
85957;SPS30;76994;48.226;16.348;2024-03-06T04:42:42;48.0;;51.6;42.9;;;;;;
85957;SPS30;76994;48.226;16.348;2024-03-06T04:52:42;45.8;;49.9;40.4;;;;;;
85957;SPS30;76994;48.226;16.348;2024-03-06T05:02:41;44.1;;47.3;39.6;;;;;;
85957;SPS30;76994;48.226;16.348;2024-03-06T05:12:41;41.9;;45.1;37.4;;;;;;
85957;SPS30;76994;48.226;16.348;2024-03-06T05:22:41;40.8;;43.5;36.8;;;;;;
85957;SPS30;76994;48.226;16.348;2024-03-06T05:32:41;39.4;;42.0;35.4;;;;;;
85957;SPS30;76994;48.226;16.348;2024-03-06T05:42:41;38.5;;41.6;34.3;;;;;;
85957;SPS30;76994;48.226;16.348;2024-03-06T05:52:41;35.6;;38.5;31.8;;;;;;
85957;SPS30;76994;48.226;16.348;2024-03-06T06:02:41;35.5;;37.4;32.4;;;;;;
85957;SPS30;76994;48.226;16.348;2024-03-06T06:12:41;30.8;;32.5;28.1;;;;;;
85957;SPS30;76994;48.226;16.348;2024-03-06T06:22:41;33.3;;35.2;30.2;;;;;;
85957;SPS30;76994;48.226;16.348;2024-03-06T06:32:41;30.8;;32.7;27.8;;;;;;
85957;SPS30;76994;48.226;16.348;2024-03-06T06:42:45;32.9;;34.7;30.1;;;;;;
85957;SPS30;76994;48.226;16.348;2024-03-06T06:52:41;35.1;;37.7;31.4;;;;;;
85957;SPS30;76994;48.226;16.348;2024-03-06T07:02:41;34.2;;36.5;30.9;;;;;;
85957;SPS30;76994;48.226;16.348;2024-03-06T07:12:41;34.2;;37.0;30.4;;;;;;
85957;SPS30;76994;48.226;16.348;2024-03-06T07:22:41;33.3;;34.9;30.5;;;;;;
85957;SPS30;76994;48.226;16.348;2024-03-06T07:32:42;34.6;;37.0;31.1;;;;;;
85957;SPS30;76994;48.226;16.348;2024-03-06T07:42:41;34.1;;35.9;31.2;;;;;;
85957;SPS30;76994;48.226;16.348;2024-03-06T07:52:41;32.2;;34.1;29.3;;;;;;
85957;SPS30;76994;48.226;16.348;2024-03-06T08:02:41;32.2;;34.2;29.1;;;;;;
85957;SPS30;76994;48.226;16.348;2024-03-06T08:12:41;33.5;;35.9;30.1;;;;;;
85957;SPS30;76994;48.226;16.348;2024-03-06T08:22:42;34.5;;36.5;31.3;;;;;;
85957;SPS30;76994;48.226;16.348;2024-03-06T08:32:41;33.1;;34.9;30.2;;;;;;
85957;SPS30;76994;48.226;16.348;2024-03-06T08:42:42;33.1;;35.1;29.9;;;;;;
85957;SPS30;76994;48.226;16.348;2024-03-06T08:52:41;36.6;;39.6;32.6;;;;;;
85957;SPS30;76994;48.226;16.348;2024-03-06T09:02:41;35.3;;37.6;31.8;;;;;;
85957;SPS30;76994;48.226;16.348;2024-03-06T09:12:41;34.1;;36.1;30.9;;;;;;
85957;SPS30;76994;48.226;16.348;2024-03-06T09:22:41;34.2;;36.3;30.9;;;;;;
85957;SPS30;76994;48.226;16.348;2024-03-06T09:32:41;31.5;;33.1;28.8;;;;;;
85957;SPS30;76994;48.226;16.348;2024-03-06T09:42:42;34.1;;36.2;30.8;;;;;;
85957;SPS30;76994;48.226;16.348;2024-03-06T09:52:41;31.6;;33.2;28.8;;;;;;
85957;SPS30;76994;48.226;16.348;2024-03-06T10:02:47;27.0;;28.3;24.7;;;;;;
85957;SPS30;76994;48.226;16.348;2024-03-06T10:12:41;28.0;;29.3;25.6;;;;;;
85957;SPS30;76994;48.226;16.348;2024-03-06T10:22:41;28.6;;28.8;27.1;;;;;;
85957;SPS30;76994;48.226;16.348;2024-03-06T10:32:41;27.4;;29.1;24.9;;;;;;
85957;SPS30;76994;48.226;16.348;2024-03-06T10:42:41;24.6;;24.7;23.5;;;;;;
85957;SPS30;76994;48.226;16.348;2024-03-06T10:52:41;24.7;;25.9;22.6;;;;;;
85957;SPS30;76994;48.226;16.348;2024-03-06T11:02:41;25.0;;26.3;22.9;;;;;;
85957;SPS30;76994;48.226;16.348;2024-03-06T11:12:41;25.3;;25.3;24.1;;;;;;
85957;SPS30;76994;48.226;16.348;2024-03-06T11:32:58;23.3;;23.6;21.9;;;;;;
85957;SPS30;76994;48.226;16.348;2024-03-06T11:42:41;24.9;;25.7;23.2;;;;;;
85957;SPS30;76994;48.226;16.348;2024-03-06T11:52:42;30.5;;30.7;28.9;;;;;;
85957;SPS30;76994;48.226;16.348;2024-03-06T12:02:41;35.3;;35.4;33.5;;;;;;
85957;SPS30;76994;48.226;16.348;2024-03-06T12:12:41;24.4;;24.4;23.3;;;;;;
85957;SPS30;76994;48.226;16.348;2024-03-06T12:22:44;25.3;;25.4;24.2;;;;;;
85957;SPS30;76994;48.226;16.348;2024-03-06T12:32:42;29.0;;30.6;26.3;;;;;;
85957;SPS30;76994;48.226;16.348;2024-03-06T12:42:41;29.9;;31.6;27.2;;;;;;
85957;SPS30;76994;48.226;16.348;2024-03-06T12:52:41;36.4;;38.2;33.3;;;;;;
85957;SPS30;76994;48.226;16.348;2024-03-06T13:02:41;27.6;;29.3;25.0;;;;;;
85957;SPS30;76994;48.226;16.348;2024-03-06T13:12:41;32.2;;34.1;29.2;;;;;;
85957;SPS30;76994;48.226;16.348;2024-03-06T13:22:41;29.0;;30.8;26.3;;;;;;
85957;SPS30;76994;48.226;16.348;2024-03-06T13:32:42;27.5;;29.4;24.7;;;;;;
85957;SPS30;76994;48.226;16.348;2024-03-06T13:42:41;28.7;;30.7;25.9;;;;;;
85957;SPS30;76994;48.226;16.348;2024-03-06T13:52:42;28.0;;30.0;25.1;;;;;;
85957;SPS30;76994;48.226;16.348;2024-03-06T14:02:41;29.0;;30.9;26.1;;;;;;
85957;SPS30;76994;48.226;16.348;2024-03-06T14:12:41;28.6;;30.5;25.8;;;;;;
85957;SPS30;76994;48.226;16.348;2024-03-06T14:22:41;24.3;;25.9;21.9;;;;;;
85957;SPS30;76994;48.226;16.348;2024-03-06T14:32:41;25.2;;27.0;22.6;;;;;;
85957;SPS30;76994;48.226;16.348;2024-03-06T14:42:41;22.8;;24.2;20.6;;;;;;
85957;SPS30;76994;48.226;16.348;2024-03-06T14:52:41;22.9;;24.5;20.6;;;;;;
85957;SPS30;76994;48.226;16.348;2024-03-06T15:02:41;25.5;;26.6;23.4;;;;;;
85957;SPS30;76994;48.226;16.348;2024-03-06T15:12:41;24.3;;25.9;21.9;;;;;;
85957;SPS30;76994;48.226;16.348;2024-03-06T15:22:42;25.9;;27.5;23.4;;;;;;
85957;SPS30;76994;48.226;16.348;2024-03-06T15:32:41;24.9;;26.1;22.9;;;;;;
85957;SPS30;76994;48.226;16.348;2024-03-06T15:42:43;25.0;;26.2;22.8;;;;;;
85957;SPS30;76994;48.226;16.348;2024-03-06T15:52:41;26.6;;28.0;24.2;;;;;;
85957;SPS30;76994;48.226;16.348;2024-03-06T16:02:41;28.4;;29.8;26.0;;;;;;
85957;SPS30;76994;48.226;16.348;2024-03-06T16:12:41;22.8;;23.9;20.8;;;;;;
85957;SPS30;76994;48.226;16.348;2024-03-06T16:22:41;24.0;;25.2;21.9;;;;;;
85957;SPS30;76994;48.226;16.348;2024-03-06T16:32:41;24.6;;26.4;22.0;;;;;;
85957;SPS30;76994;48.226;16.348;2024-03-06T16:42:42;27.1;;29.1;24.2;;;;;;
85957;SPS30;76994;48.226;16.348;2024-03-06T16:52:41;27.3;;28.7;24.9;;;;;;
85957;SPS30;76994;48.226;16.348;2024-03-06T17:02:41;28.4;;30.5;25.3;;;;;;
85957;SPS30;76994;48.226;16.348;2024-03-06T17:12:42;26.2;;27.5;24.0;;;;;;
85957;SPS30;76994;48.226;16.348;2024-03-06T17:22:41;28.6;;30.5;25.8;;;;;;
85957;SPS30;76994;48.226;16.348;2024-03-06T17:32:41;28.9;;30.4;26.3;;;;;;
85957;SPS30;76994;48.226;16.348;2024-03-06T17:42:41;28.6;;30.0;26.1;;;;;;
85957;SPS30;76994;48.226;16.348;2024-03-06T17:52:41;29.2;;30.7;26.6;;;;;;
85957;SPS30;76994;48.226;16.348;2024-03-06T18:02:41;26.4;;27.8;24.1;;;;;;
85957;SPS30;76994;48.226;16.348;2024-03-06T18:12:41;27.3;;29.2;24.6;;;;;;
85957;SPS30;76994;48.226;16.348;2024-03-06T18:22:41;27.2;;28.6;24.7;;;;;;
85957;SPS30;76994;48.226;16.348;2024-03-06T18:32:42;28.7;;30.5;26.0;;;;;;
85957;SPS30;76994;48.226;16.348;2024-03-06T18:42:41;29.2;;31.4;26.2;;;;;;
85957;SPS30;76994;48.226;16.348;2024-03-06T18:52:41;26.5;;27.8;24.3;;;;;;
85957;SPS30;76994;48.226;16.348;2024-03-06T19:02:41;26.2;;27.7;23.8;;;;;;
85957;SPS30;76994;48.226;16.348;2024-03-06T19:12:41;26.2;;28.1;23.6;;;;;;
85957;SPS30;76994;48.226;16.348;2024-03-06T19:22:41;24.6;;26.0;22.3;;;;;;
85957;SPS30;76994;48.226;16.348;2024-03-06T19:32:41;27.5;;28.1;25.8;;;;;;
85957;SPS30;76994;48.226;16.348;2024-03-06T19:42:42;26.4;;28.1;23.9;;;;;;
85957;SPS30;76994;48.226;16.348;2024-03-06T19:52:42;28.7;;30.2;26.3;;;;;;
85957;SPS30;76994;48.226;16.348;2024-03-06T20:02:42;26.2;;27.7;23.8;;;;;;
85957;SPS30;76994;48.226;16.348;2024-03-06T20:12:41;27.4;;28.8;25.1;;;;;;
85957;SPS30;76994;48.226;16.348;2024-03-06T20:22:41;26.7;;28.1;24.3;;;;;;
85957;SPS30;76994;48.226;16.348;2024-03-06T20:32:42;28.8;;30.2;26.4;;;;;;
85957;SPS30;76994;48.226;16.348;2024-03-06T20:42:42;30.9;;32.5;28.2;;;;;;
85957;SPS30;76994;48.226;16.348;2024-03-06T20:52:41;33.7;;35.6;30.6;;;;;;
85957;SPS30;76994;48.226;16.348;2024-03-06T21:02:42;35.0;;36.8;31.9;;;;;;
85957;SPS30;76994;48.226;16.348;2024-03-06T21:12:41;33.0;;34.8;30.0;;;;;;
85957;SPS30;76994;48.226;16.348;2024-03-06T21:22:42;33.2;;35.1;30.1;;;;;;
85957;SPS30;76994;48.226;16.348;2024-03-06T21:32:42;33.8;;35.2;31.1;;;;;;
85957;SPS30;76994;48.226;16.348;2024-03-06T21:42:41;33.7;;35.8;30.5;;;;;;
85957;SPS30;76994;48.226;16.348;2024-03-06T21:52:41;32.7;;33.2;30.7;;;;;;
85957;SPS30;76994;48.226;16.348;2024-03-06T22:02:41;31.8;;33.0;29.4;;;;;;
85957;SPS30;76994;48.226;16.348;2024-03-06T22:12:41;29.0;;30.5;26.4;;;;;;
85957;SPS30;76994;48.226;16.348;2024-03-06T22:22:41;31.1;;32.8;28.4;;;;;;
85957;SPS30;76994;48.226;16.348;2024-03-06T22:32:42;32.8;;34.5;29.9;;;;;;
85957;SPS30;76994;48.226;16.348;2024-03-06T22:42:41;32.9;;34.7;30.0;;;;;;
85957;SPS30;76994;48.226;16.348;2024-03-06T22:52:42;33.1;;35.1;29.9;;;;;;
85957;SPS30;76994;48.226;16.348;2024-03-06T23:02:41;33.4;;35.2;30.4;;;;;;
85957;SPS30;76994;48.226;16.348;2024-03-06T23:12:41;32.0;;33.9;29.1;;;;;;
85957;SPS30;76994;48.226;16.348;2024-03-06T23:22:41;27.9;;29.4;25.5;;;;;;
85957;SPS30;76994;48.226;16.348;2024-03-06T23:32:41;24.2;;25.5;22.0;;;;;;
85957;SPS30;76994;48.226;16.348;2024-03-06T23:42:42;22.4;;22.4;21.3;;;;;;
85957;SPS30;76994;48.226;16.348;2024-03-06T23:52:41;20.6;;20.7;19.5;;;;;;
